sensor_id;sensor_type;location;lat;lon;timestamp;P1;durP1;ratioP1;P2;durP2;ratioP2
32186;SDS011;18686;53.084;8.872;2023-06-14T00:00:05;4.93;;;1.92;;
32186;SDS011;18686;53.084;8.872;2023-06-14T00:02:34;5.20;;;1.52;;
32186;SDS011;18686;53.084;8.872;2023-06-14T00:05:03;4.43;;;1.65;;
32186;SDS011;18686;53.084;8.872;2023-06-14T00:07:35;2.83;;;1.70;;
32186;SDS011;18686;53.084;8.872;2023-06-14T00:10:09;4.30;;;1.33;;
32186;SDS011;18686;53.084;8.872;2023-06-14T00:12:39;5.85;;;1.95;;
32186;SDS011;18686;53.084;8.872;2023-06-14T00:15:09;4.55;;;1.65;;
32186;SDS011;18686;53.084;8.872;2023-06-14T00:17:38;2.10;;;1.50;;
32186;SDS011;18686;53.084;8.872;2023-06-14T00:20:07;2.55;;;1.70;;
32186;SDS011;18686;53.084;8.872;2023-06-14T00:22:36;6.53;;;2.17;;
32186;SDS011;18686;53.084;8.872;2023-06-14T00:25:05;3.25;;;1.60;;
32186;SDS011;18686;53.084;8.872;2023-06-14T00:27:54;3.67;;;1.85;;
32186;SDS011;18686;53.084;8.872;2023-06-14T00:30:25;5.20;;;1.88;;
32186;SDS011;18686;53.084;8.872;2023-06-14T00:35:25;5.40;;;1.83;;
32186;SDS011;18686;53.084;8.872;2023-06-14T00:37:54;7.28;;;1.98;;
32186;SDS011;18686;53.084;8.872;2023-06-14T00:40:22;4.15;;;1.80;;
32186;SDS011;18686;53.084;8.872;2023-06-14T00:42:50;4.70;;;1.85;;
32186;SDS011;18686;53.084;8.872;2023-06-14T00:45:19;3.50;;;1.88;;
32186;SDS011;18686;53.084;8.872;2023-06-14T01:00:16;5.97;;;1.83;;
32186;SDS011;18686;53.084;8.872;2023-06-14T01:02:45;6.70;;;1.83;;
32186;SDS011;18686;53.084;8.872;2023-06-14T01:05:14;12.70;;;2.72;;
32186;SDS011;18686;53.084;8.872;2023-06-14T01:07:51;3.38;;;2.03;;
32186;SDS011;18686;53.084;8.872;2023-06-14T01:13:27;4.47;;;2.00;;
32186;SDS011;18686;53.084;8.872;2023-06-14T01:15:58;4.45;;;1.67;;
32186;SDS011;18686;53.084;8.872;2023-06-14T01:18:29;1.73;;;1.50;;
32186;SDS011;18686;53.084;8.872;2023-06-14T01:21:00;2.30;;;1.70;;
32186;SDS011;18686;53.084;8.872;2023-06-14T01:23:33;6.25;;;2.28;;
32186;SDS011;18686;53.084;8.872;2023-06-14T01:26:01;3.15;;;1.85;;
32186;SDS011;18686;53.084;8.872;2023-06-14T01:28:31;6.38;;;2.15;;
32186;SDS011;18686;53.084;8.872;2023-06-14T01:31:00;4.55;;;1.95;;
32186;SDS011;18686;53.084;8.872;2023-06-14T01:33:32;5.75;;;1.98;;
32186;SDS011;18686;53.084;8.872;2023-06-14T01:36:02;3.15;;;2.00;;
32186;SDS011;18686;53.084;8.872;2023-06-14T01:38:34;4.13;;;2.25;;
32186;SDS011;18686;53.084;8.872;2023-06-14T01:41:02;7.03;;;2.85;;
32186;SDS011;18686;53.084;8.872;2023-06-14T01:43:31;5.28;;;2.03;;
32186;SDS011;18686;53.084;8.872;2023-06-14T01:46:03;5.32;;;2.50;;
32186;SDS011;18686;53.084;8.872;2023-06-14T01:48:33;6.50;;;2.65;;
32186;SDS011;18686;53.084;8.872;2023-06-14T01:51:02;3.58;;;2.30;;
32186;SDS011;18686;53.084;8.872;2023-06-14T01:53:34;3.88;;;2.20;;
32186;SDS011;18686;53.084;8.872;2023-06-14T01:56:03;6.10;;;2.83;;
32186;SDS011;18686;53.084;8.872;2023-06-14T01:58:32;3.70;;;2.10;;
32186;SDS011;18686;53.084;8.872;2023-06-14T02:01:00;5.88;;;2.10;;
32186;SDS011;18686;53.084;8.872;2023-06-14T02:03:28;13.98;;;9.10;;
32186;SDS011;18686;53.084;8.872;2023-06-14T02:05:57;12.18;;;7.35;;
32186;SDS011;18686;53.084;8.872;2023-06-14T02:08:26;5.80;;;4.43;;
32186;SDS011;18686;53.084;8.872;2023-06-14T02:10:55;7.65;;;3.70;;
32186;SDS011;18686;53.084;8.872;2023-06-14T02:13:24;4.03;;;2.50;;
32186;SDS011;18686;53.084;8.872;2023-06-14T02:15:52;8.98;;;2.33;;
32186;SDS011;18686;53.084;8.872;2023-06-14T02:18:21;5.40;;;2.15;;
32186;SDS011;18686;53.084;8.872;2023-06-14T02:20:50;3.28;;;2.17;;
32186;SDS011;18686;53.084;8.872;2023-06-14T02:23:18;4.22;;;2.25;;
32186;SDS011;18686;53.084;8.872;2023-06-14T02:25:46;2.97;;;1.83;;
32186;SDS011;18686;53.084;8.872;2023-06-14T02:28:16;2.95;;;2.03;;
32186;SDS011;18686;53.084;8.872;2023-06-14T02:30:45;3.78;;;1.92;;
32186;SDS011;18686;53.084;8.872;2023-06-14T02:33:13;4.10;;;2.30;;
32186;SDS011;18686;53.084;8.872;2023-06-14T02:35:41;5.22;;;2.35;;
32186;SDS011;18686;53.084;8.872;2023-06-14T02:38:09;5.15;;;2.60;;
32186;SDS011;18686;53.084;8.872;2023-06-14T02:40:38;6.65;;;4.40;;
32186;SDS011;18686;53.084;8.872;2023-06-14T02:43:08;9.10;;;5.00;;
32186;SDS011;18686;53.084;8.872;2023-06-14T02:45:39;5.63;;;4.20;;
32186;SDS011;18686;53.084;8.872;2023-06-14T02:48:07;6.57;;;3.97;;
32186;SDS011;18686;53.084;8.872;2023-06-14T02:50:36;10.40;;;3.80;;
32186;SDS011;18686;53.084;8.872;2023-06-14T02:53:04;6.93;;;3.50;;
32186;SDS011;18686;53.084;8.872;2023-06-14T02:55:33;6.18;;;2.92;;
32186;SDS011;18686;53.084;8.872;2023-06-14T02:58:07;4.70;;;3.42;;
32186;SDS011;18686;53.084;8.872;2023-06-14T03:00:36;9.25;;;4.15;;
32186;SDS011;18686;53.084;8.872;2023-06-14T03:03:08;4.88;;;3.15;;
32186;SDS011;18686;53.084;8.872;2023-06-14T03:05:44;6.05;;;2.45;;
32186;SDS011;18686;53.084;8.872;2023-06-14T03:08:19;5.30;;;2.58;;
32186;SDS011;18686;53.084;8.872;2023-06-14T03:10:50;4.95;;;2.30;;
32186;SDS011;18686;53.084;8.872;2023-06-14T03:13:18;2.78;;;2.30;;
32186;SDS011;18686;53.084;8.872;2023-06-14T03:15:51;4.55;;;3.20;;
32186;SDS011;18686;53.084;8.872;2023-06-14T03:18:21;4.97;;;2.70;;
32186;SDS011;18686;53.084;8.872;2023-06-14T03:20:54;15.05;;;4.82;;
32186;SDS011;18686;53.084;8.872;2023-06-14T03:23:25;5.40;;;3.20;;
32186;SDS011;18686;53.084;8.872;2023-06-14T03:25:53;3.78;;;3.15;;
32186;SDS011;18686;53.084;8.872;2023-06-14T03:28:22;4.72;;;2.25;;
32186;SDS011;18686;53.084;8.872;2023-06-14T03:30:53;5.40;;;2.78;;
32186;SDS011;18686;53.084;8.872;2023-06-14T03:33:22;4.82;;;2.35;;
32186;SDS011;18686;53.084;8.872;2023-06-14T03:35:52;4.88;;;2.50;;
32186;SDS011;18686;53.084;8.872;2023-06-14T03:38:21;3.53;;;2.22;;
32186;SDS011;18686;53.084;8.872;2023-06-14T03:40:50;6.22;;;2.30;;
32186;SDS011;18686;53.084;8.872;2023-06-14T03:43:18;4.00;;;2.15;;
32186;SDS011;18686;53.084;8.872;2023-06-14T03:45:47;4.10;;;2.50;;
32186;SDS011;18686;53.084;8.872;2023-06-14T03:48:17;7.13;;;2.65;;
32186;SDS011;18686;53.084;8.872;2023-06-14T03:50:45;4.20;;;2.50;;
32186;SDS011;18686;53.084;8.872;2023-06-14T03:53:13;6.55;;;2.38;;
32186;SDS011;18686;53.084;8.872;2023-06-14T03:55:46;4.35;;;2.72;;
32186;SDS011;18686;53.084;8.872;2023-06-14T03:58:19;4.72;;;2.67;;
32186;SDS011;18686;53.084;8.872;2023-06-14T04:00:47;2.90;;;2.30;;
32186;SDS011;18686;53.084;8.872;2023-06-14T04:03:17;4.32;;;2.60;;
32186;SDS011;18686;53.084;8.872;2023-06-14T04:05:46;4.93;;;2.70;;
32186;SDS011;18686;53.084;8.872;2023-06-14T04:08:17;5.50;;;3.28;;
32186;SDS011;18686;53.084;8.872;2023-06-14T04:10:46;6.53;;;2.85;;
32186;SDS011;18686;53.084;8.872;2023-06-14T04:13:14;7.50;;;2.83;;
32186;SDS011;18686;53.084;8.872;2023-06-14T04:15:42;3.38;;;2.22;;
32186;SDS011;18686;53.084;8.872;2023-06-14T04:18:19;4.03;;;2.60;;
32186;SDS011;18686;53.084;8.872;2023-06-14T04:20:50;6.55;;;2.95;;
32186;SDS011;18686;53.084;8.872;2023-06-14T04:23:20;3.95;;;2.90;;
32186;SDS011;18686;53.084;8.872;2023-06-14T04:25:50;7.30;;;3.10;;
32186;SDS011;18686;53.084;8.872;2023-06-14T04:28:21;7.68;;;3.63;;
32186;SDS011;18686;53.084;8.872;2023-06-14T04:30:56;4.68;;;2.80;;
32186;SDS011;18686;53.084;8.872;2023-06-14T04:33:33;5.78;;;2.85;;
32186;SDS011;18686;53.084;8.872;2023-06-14T04:36:12;4.93;;;3.13;;
32186;SDS011;18686;53.084;8.872;2023-06-14T04:38:46;6.10;;;2.90;;
32186;SDS011;18686;53.084;8.872;2023-06-14T04:41:16;7.30;;;2.95;;
32186;SDS011;18686;53.084;8.872;2023-06-14T04:43:45;6.35;;;3.05;;
32186;SDS011;18686;53.084;8.872;2023-06-14T04:46:15;5.93;;;3.15;;
32186;SDS011;18686;53.084;8.872;2023-06-14T04:48:46;5.60;;;2.90;;
32186;SDS011;18686;53.084;8.872;2023-06-14T04:51:16;6.15;;;3.17;;
32186;SDS011;18686;53.084;8.872;2023-06-14T04:53:47;4.97;;;2.55;;
32186;SDS011;18686;53.084;8.872;2023-06-14T04:56:16;5.25;;;2.70;;
32186;SDS011;18686;53.084;8.872;2023-06-14T04:58:45;5.68;;;2.88;;
32186;SDS011;18686;53.084;8.872;2023-06-14T05:01:13;5.10;;;3.30;;
32186;SDS011;18686;53.084;8.872;2023-06-14T05:03:41;9.43;;;2.75;;
32186;SDS011;18686;53.084;8.872;2023-06-14T05:06:13;5.10;;;2.60;;
32186;SDS011;18686;53.084;8.872;2023-06-14T05:08:42;7.50;;;2.58;;
32186;SDS011;18686;53.084;8.872;2023-06-14T05:11:10;5.00;;;2.85;;
32186;SDS011;18686;53.084;8.872;2023-06-14T05:13:38;5.80;;;3.00;;
32186;SDS011;18686;53.084;8.872;2023-06-14T05:16:09;7.07;;;2.70;;
32186;SDS011;18686;53.084;8.872;2023-06-14T05:18:37;5.00;;;2.67;;
32186;SDS011;18686;53.084;8.872;2023-06-14T05:21:06;5.32;;;2.80;;
32186;SDS011;18686;53.084;8.872;2023-06-14T05:23:36;4.82;;;2.80;;
32186;SDS011;18686;53.084;8.872;2023-06-14T05:26:05;7.72;;;3.40;;
32186;SDS011;18686;53.084;8.872;2023-06-14T05:28:33;9.15;;;3.05;;
32186;SDS011;18686;53.084;8.872;2023-06-14T05:31:02;5.30;;;2.90;;
32186;SDS011;18686;53.084;8.872;2023-06-14T05:33:33;10.48;;;3.00;;
32186;SDS011;18686;53.084;8.872;2023-06-14T05:36:02;7.38;;;2.72;;
32186;SDS011;18686;53.084;8.872;2023-06-14T05:38:33;5.18;;;2.65;;
32186;SDS011;18686;53.084;8.872;2023-06-14T05:41:03;7.25;;;3.05;;
32186;SDS011;18686;53.084;8.872;2023-06-14T05:43:31;4.90;;;2.50;;
32186;SDS011;18686;53.084;8.872;2023-06-14T05:45:59;6.50;;;2.92;;
32186;SDS011;18686;53.084;8.872;2023-06-14T05:48:28;6.25;;;2.60;;
32186;SDS011;18686;53.084;8.872;2023-06-14T05:50:58;4.38;;;2.50;;
32186;SDS011;18686;53.084;8.872;2023-06-14T05:53:44;3.92;;;2.80;;
32186;SDS011;18686;53.084;8.872;2023-06-14T05:56:15;5.28;;;2.67;;
32186;SDS011;18686;53.084;8.872;2023-06-14T05:58:44;10.18;;;3.00;;
32186;SDS011;18686;53.084;8.872;2023-06-14T06:01:13;3.42;;;2.40;;
32186;SDS011;18686;53.084;8.872;2023-06-14T06:03:41;6.00;;;3.15;;
32186;SDS011;18686;53.084;8.872;2023-06-14T06:06:13;6.88;;;2.63;;
32186;SDS011;18686;53.084;8.872;2023-06-14T06:08:41;5.97;;;2.60;;
32186;SDS011;18686;53.084;8.872;2023-06-14T06:11:09;4.88;;;2.45;;
32186;SDS011;18686;53.084;8.872;2023-06-14T06:13:39;3.10;;;2.10;;
32186;SDS011;18686;53.084;8.872;2023-06-14T06:16:08;8.05;;;2.53;;
32186;SDS011;18686;53.084;8.872;2023-06-14T06:18:36;5.55;;;2.42;;
32186;SDS011;18686;53.084;8.872;2023-06-14T06:21:05;3.70;;;2.47;;
32186;SDS011;18686;53.084;8.872;2023-06-14T06:23:33;5.95;;;2.20;;
32186;SDS011;18686;53.084;8.872;2023-06-14T06:26:02;3.75;;;2.35;;
32186;SDS011;18686;53.084;8.872;2023-06-14T06:28:31;4.15;;;2.15;;
32186;SDS011;18686;53.084;8.872;2023-06-14T06:31:00;8.82;;;2.13;;
32186;SDS011;18686;53.084;8.872;2023-06-14T06:33:30;5.25;;;2.92;;
32186;SDS011;18686;53.084;8.872;2023-06-14T06:35:58;6.85;;;2.17;;
32186;SDS011;18686;53.084;8.872;2023-06-14T06:38:27;4.32;;;2.30;;
32186;SDS011;18686;53.084;8.872;2023-06-14T06:40:55;4.65;;;2.88;;
32186;SDS011;18686;53.084;8.872;2023-06-14T06:43:24;6.32;;;1.90;;
32186;SDS011;18686;53.084;8.872;2023-06-14T06:45:53;12.07;;;2.25;;
32186;SDS011;18686;53.084;8.872;2023-06-14T06:48:23;6.75;;;2.15;;
32186;SDS011;18686;53.084;8.872;2023-06-14T06:50:51;4.07;;;2.00;;
32186;SDS011;18686;53.084;8.872;2023-06-14T06:53:20;3.20;;;2.35;;
32186;SDS011;18686;53.084;8.872;2023-06-14T06:56:05;6.13;;;2.85;;
32186;SDS011;18686;53.084;8.872;2023-06-14T06:58:33;4.82;;;2.33;;
32186;SDS011;18686;53.084;8.872;2023-06-14T07:01:02;4.93;;;2.55;;
32186;SDS011;18686;53.084;8.872;2023-06-14T07:03:31;2.15;;;1.90;;
32186;SDS011;18686;53.084;8.872;2023-06-14T07:06:00;3.97;;;1.58;;
32186;SDS011;18686;53.084;8.872;2023-06-14T07:08:28;4.47;;;1.90;;
32186;SDS011;18686;53.084;8.872;2023-06-14T07:10:56;5.72;;;1.65;;
32186;SDS011;18686;53.084;8.872;2023-06-14T07:13:25;6.40;;;2.08;;
32186;SDS011;18686;53.084;8.872;2023-06-14T07:15:54;2.88;;;1.63;;
32186;SDS011;18686;53.084;8.872;2023-06-14T07:18:25;2.53;;;1.40;;
32186;SDS011;18686;53.084;8.872;2023-06-14T07:20:54;1.80;;;1.50;;
32186;SDS011;18686;53.084;8.872;2023-06-14T07:23:23;3.42;;;1.70;;
32186;SDS011;18686;53.084;8.872;2023-06-14T07:25:51;2.47;;;1.70;;
32186;SDS011;18686;53.084;8.872;2023-06-14T07:28:20;2.60;;;1.50;;
32186;SDS011;18686;53.084;8.872;2023-06-14T07:30:48;1.92;;;1.70;;
32186;SDS011;18686;53.084;8.872;2023-06-14T07:33:16;3.75;;;1.58;;
32186;SDS011;18686;53.084;8.872;2023-06-14T07:35:45;1.73;;;1.40;;
32186;SDS011;18686;53.084;8.872;2023-06-14T07:38:15;4.45;;;1.80;;
32186;SDS011;18686;53.084;8.872;2023-06-14T07:40:44;4.32;;;2.08;;
32186;SDS011;18686;53.084;8.872;2023-06-14T07:43:12;2.75;;;1.88;;
32186;SDS011;18686;53.084;8.872;2023-06-14T07:45:40;5.50;;;1.60;;
32186;SDS011;18686;53.084;8.872;2023-06-14T07:48:28;2.35;;;1.40;;
32186;SDS011;18686;53.084;8.872;2023-06-14T07:50:56;2.97;;;1.27;;
32186;SDS011;18686;53.084;8.872;2023-06-14T07:53:26;3.08;;;1.58;;
32186;SDS011;18686;53.084;8.872;2023-06-14T07:55:54;5.82;;;1.65;;
32186;SDS011;18686;53.084;8.872;2023-06-14T07:58:22;3.03;;;1.58;;
32186;SDS011;18686;53.084;8.872;2023-06-14T08:00:50;3.15;;;1.75;;
32186;SDS011;18686;53.084;8.872;2023-06-14T08:03:19;2.20;;;1.40;;
32186;SDS011;18686;53.084;8.872;2023-06-14T08:05:47;1.95;;;1.73;;
32186;SDS011;18686;53.084;8.872;2023-06-14T08:08:15;3.72;;;1.67;;
32186;SDS011;18686;53.084;8.872;2023-06-14T08:10:45;2.78;;;1.45;;
32186;SDS011;18686;53.084;8.872;2023-06-14T08:13:13;1.98;;;1.35;;
32186;SDS011;18686;53.084;8.872;2023-06-14T08:15:42;2.22;;;1.75;;
32186;SDS011;18686;53.084;8.872;2023-06-14T08:18:10;2.00;;;1.50;;
32186;SDS011;18686;53.084;8.872;2023-06-14T08:20:39;4.90;;;1.10;;
32186;SDS011;18686;53.084;8.872;2023-06-14T08:23:07;2.53;;;1.50;;
32186;SDS011;18686;53.084;8.872;2023-06-14T08:25:36;3.15;;;1.50;;
32186;SDS011;18686;53.084;8.872;2023-06-14T08:28:06;3.03;;;1.30;;
32186;SDS011;18686;53.084;8.872;2023-06-14T08:30:34;4.88;;;1.55;;
32186;SDS011;18686;53.084;8.872;2023-06-14T08:33:02;3.25;;;1.30;;
32186;SDS011;18686;53.084;8.872;2023-06-14T08:35:42;1.85;;;1.20;;
32186;SDS011;18686;53.084;8.872;2023-06-14T08:38:10;3.13;;;1.15;;
32186;SDS011;18686;53.084;8.872;2023-06-14T08:40:40;2.22;;;1.35;;
32186;SDS011;18686;53.084;8.872;2023-06-14T08:43:10;5.80;;;1.85;;
32186;SDS011;18686;53.084;8.872;2023-06-14T08:45:39;2.85;;;1.63;;
32186;SDS011;18686;53.084;8.872;2023-06-14T08:48:07;1.83;;;1.27;;
32186;SDS011;18686;53.084;8.872;2023-06-14T08:50:36;2.13;;;1.30;;
32186;SDS011;18686;53.084;8.872;2023-06-14T08:53:08;2.17;;;1.33;;
32186;SDS011;18686;53.084;8.872;2023-06-14T08:55:39;4.18;;;1.67;;
32186;SDS011;18686;53.084;8.872;2023-06-14T08:58:10;2.40;;;1.48;;
32186;SDS011;18686;53.084;8.872;2023-06-14T09:00:41;4.68;;;1.95;;
32186;SDS011;18686;53.084;8.872;2023-06-14T09:03:11;1.95;;;1.00;;
32186;SDS011;18686;53.084;8.872;2023-06-14T09:05:41;1.30;;;1.20;;
32186;SDS011;18686;53.084;8.872;2023-06-14T09:08:10;1.80;;;1.42;;
32186;SDS011;18686;53.084;8.872;2023-06-14T09:10:39;4.20;;;1.50;;
32186;SDS011;18686;53.084;8.872;2023-06-14T09:13:08;2.22;;;1.00;;
32186;SDS011;18686;53.084;8.872;2023-06-14T09:15:37;3.70;;;1.60;;
32186;SDS011;18686;53.084;8.872;2023-06-14T09:18:06;1.73;;;1.40;;
32186;SDS011;18686;53.084;8.872;2023-06-14T09:20:34;1.88;;;1.42;;
32186;SDS011;18686;53.084;8.872;2023-06-14T09:23:02;1.27;;;1.13;;
32186;SDS011;18686;53.084;8.872;2023-06-14T09:25:38;1.63;;;1.30;;
32186;SDS011;18686;53.084;8.872;2023-06-14T09:28:10;1.63;;;1.23;;
32186;SDS011;18686;53.084;8.872;2023-06-14T09:30:40;5.18;;;1.58;;
32186;SDS011;18686;53.084;8.872;2023-06-14T09:33:08;2.35;;;1.30;;
32186;SDS011;18686;53.084;8.872;2023-06-14T09:35:37;2.58;;;1.10;;
32186;SDS011;18686;53.084;8.872;2023-06-14T09:38:05;3.72;;;1.80;;
32186;SDS011;18686;53.084;8.872;2023-06-14T09:40:34;1.85;;;1.25;;
32186;SDS011;18686;53.084;8.872;2023-06-14T09:43:06;3.28;;;1.20;;
32186;SDS011;18686;53.084;8.872;2023-06-14T09:45:37;2.92;;;1.60;;
32186;SDS011;18686;53.084;8.872;2023-06-14T09:48:07;3.85;;;1.30;;
32186;SDS011;18686;53.084;8.872;2023-06-14T09:50:36;1.58;;;1.35;;
32186;SDS011;18686;53.084;8.872;2023-06-14T09:53:05;3.80;;;1.30;;
32186;SDS011;18686;53.084;8.872;2023-06-14T09:55:37;2.92;;;1.27;;
32186;SDS011;18686;53.084;8.872;2023-06-14T09:58:08;2.90;;;1.30;;
32186;SDS011;18686;53.084;8.872;2023-06-14T10:00:40;2.10;;;1.25;;
32186;SDS011;18686;53.084;8.872;2023-06-14T10:03:12;2.13;;;1.30;;
32186;SDS011;18686;53.084;8.872;2023-06-14T10:05:41;2.17;;;1.30;;
32186;SDS011;18686;53.084;8.872;2023-06-14T10:08:13;2.00;;;1.27;;
32186;SDS011;18686;53.084;8.872;2023-06-14T10:10:44;2.75;;;1.45;;
32186;SDS011;18686;53.084;8.872;2023-06-14T10:13:13;2.97;;;1.23;;
32186;SDS011;18686;53.084;8.872;2023-06-14T10:15:52;2.78;;;1.40;;
32186;SDS011;18686;53.084;8.872;2023-06-14T10:18:28;2.65;;;1.38;;
32186;SDS011;18686;53.084;8.872;2023-06-14T10:21:05;3.28;;;1.35;;
32186;SDS011;18686;53.084;8.872;2023-06-14T10:23:41;1.95;;;1.40;;
32186;SDS011;18686;53.084;8.872;2023-06-14T10:26:17;2.50;;;1.10;;
32186;SDS011;18686;53.084;8.872;2023-06-14T10:28:55;2.83;;;1.23;;
32186;SDS011;18686;53.084;8.872;2023-06-14T10:31:43;1.88;;;1.35;;
32186;SDS011;18686;53.084;8.872;2023-06-14T10:34:12;2.67;;;1.40;;
32186;SDS011;18686;53.084;8.872;2023-06-14T10:37:00;2.75;;;1.33;;
32186;SDS011;18686;53.084;8.872;2023-06-14T10:39:30;6.43;;;1.85;;
32186;SDS011;18686;53.084;8.872;2023-06-14T10:42:01;2.03;;;1.45;;
32186;SDS011;18686;53.084;8.872;2023-06-14T10:44:39;2.00;;;1.20;;
32186;SDS011;18686;53.084;8.872;2023-06-14T10:47:11;4.40;;;1.48;;
32186;SDS011;18686;53.084;8.872;2023-06-14T10:49:50;4.22;;;1.40;;
32186;SDS011;18686;53.084;8.872;2023-06-14T10:52:24;3.88;;;1.67;;
32186;SDS011;18686;53.084;8.872;2023-06-14T10:54:55;3.33;;;1.50;;
32186;SDS011;18686;53.084;8.872;2023-06-14T10:57:27;4.85;;;1.48;;
32186;SDS011;18686;53.084;8.872;2023-06-14T11:00:07;6.22;;;1.70;;
32186;SDS011;18686;53.084;8.872;2023-06-14T11:05:54;5.95;;;1.92;;
32186;SDS011;18686;53.084;8.872;2023-06-14T11:08:40;5.15;;;1.40;;
32186;SDS011;18686;53.084;8.872;2023-06-14T11:11:24;4.18;;;1.60;;
32186;SDS011;18686;53.084;8.872;2023-06-14T11:13:59;5.72;;;1.60;;
32186;SDS011;18686;53.084;8.872;2023-06-14T11:16:27;7.18;;;1.73;;
32186;SDS011;18686;53.084;8.872;2023-06-14T11:18:56;4.43;;;1.45;;
32186;SDS011;18686;53.084;8.872;2023-06-14T11:21:25;4.03;;;1.77;;
32186;SDS011;18686;53.084;8.872;2023-06-14T11:23:58;7.50;;;2.28;;
32186;SDS011;18686;53.084;8.872;2023-06-14T11:26:26;6.32;;;1.38;;
32186;SDS011;18686;53.084;8.872;2023-06-14T11:28:55;12.38;;;2.30;;
32186;SDS011;18686;53.084;8.872;2023-06-14T11:31:24;6.45;;;1.77;;
32186;SDS011;18686;53.084;8.872;2023-06-14T11:33:54;5.47;;;1.42;;
32186;SDS011;18686;53.084;8.872;2023-06-14T11:36:23;3.15;;;1.63;;
32186;SDS011;18686;53.084;8.872;2023-06-14T11:39:00;4.25;;;1.85;;
32186;SDS011;18686;53.084;8.872;2023-06-14T11:41:32;6.45;;;2.05;;
32186;SDS011;18686;53.084;8.872;2023-06-14T11:44:02;6.78;;;1.75;;
32186;SDS011;18686;53.084;8.872;2023-06-14T11:46:30;3.92;;;1.60;;
32186;SDS011;18686;53.084;8.872;2023-06-14T11:48:59;11.23;;;1.90;;
32186;SDS011;18686;53.084;8.872;2023-06-14T11:51:31;5.63;;;1.63;;
32186;SDS011;18686;53.084;8.872;2023-06-14T11:54:00;5.57;;;3.42;;
32186;SDS011;18686;53.084;8.872;2023-06-14T11:56:30;3.10;;;1.77;;
32186;SDS011;18686;53.084;8.872;2023-06-14T11:58:59;5.93;;;1.88;;
32186;SDS011;18686;53.084;8.872;2023-06-14T12:01:30;3.33;;;1.65;;
32186;SDS011;18686;53.084;8.872;2023-06-14T12:03:59;6.05;;;2.10;;
32186;SDS011;18686;53.084;8.872;2023-06-14T12:06:28;4.95;;;1.70;;
32186;SDS011;18686;53.084;8.872;2023-06-14T12:09:03;5.03;;;1.90;;
32186;SDS011;18686;53.084;8.872;2023-06-14T12:11:33;4.15;;;2.00;;
32186;SDS011;18686;53.084;8.872;2023-06-14T12:14:03;5.05;;;1.92;;
32186;SDS011;18686;53.084;8.872;2023-06-14T12:16:34;7.65;;;1.80;;
32186;SDS011;18686;53.084;8.872;2023-06-14T12:19:13;6.45;;;1.88;;
32186;SDS011;18686;53.084;8.872;2023-06-14T12:21:45;2.72;;;1.48;;
32186;SDS011;18686;53.084;8.872;2023-06-14T12:24:15;7.88;;;1.70;;
32186;SDS011;18686;53.084;8.872;2023-06-14T12:26:44;1.95;;;1.60;;
32186;SDS011;18686;53.084;8.872;2023-06-14T12:29:13;5.57;;;1.83;;
32186;SDS011;18686;53.084;8.872;2023-06-14T12:31:41;7.15;;;1.50;;
32186;SDS011;18686;53.084;8.872;2023-06-14T12:34:10;4.53;;;1.80;;
32186;SDS011;18686;53.084;8.872;2023-06-14T12:36:41;4.97;;;1.90;;
32186;SDS011;18686;53.084;8.872;2023-06-14T12:39:13;6.25;;;2.17;;
32186;SDS011;18686;53.084;8.872;2023-06-14T12:41:42;3.72;;;1.88;;
32186;SDS011;18686;53.084;8.872;2023-06-14T12:44:10;9.45;;;2.10;;
32186;SDS011;18686;53.084;8.872;2023-06-14T12:46:39;6.20;;;2.00;;
32186;SDS011;18686;53.084;8.872;2023-06-14T12:49:08;3.53;;;2.35;;
32186;SDS011;18686;53.084;8.872;2023-06-14T12:51:38;4.32;;;2.00;;
32186;SDS011;18686;53.084;8.872;2023-06-14T12:54:07;2.80;;;1.80;;
32186;SDS011;18686;53.084;8.872;2023-06-14T12:56:37;5.72;;;2.30;;
32186;SDS011;18686;53.084;8.872;2023-06-14T12:59:06;6.13;;;2.50;;
32186;SDS011;18686;53.084;8.872;2023-06-14T13:01:34;6.07;;;2.50;;
32186;SDS011;18686;53.084;8.872;2023-06-14T13:04:02;3.63;;;2.00;;
32186;SDS011;18686;53.084;8.872;2023-06-14T13:06:31;5.63;;;2.50;;
32186;SDS011;18686;53.084;8.872;2023-06-14T13:09:00;5.05;;;2.17;;
32186;SDS011;18686;53.084;8.872;2023-06-14T13:11:28;3.40;;;1.90;;
32186;SDS011;18686;53.084;8.872;2023-06-14T13:13:58;3.42;;;2.00;;
32186;SDS011;18686;53.084;8.872;2023-06-14T13:16:33;4.93;;;1.92;;
32186;SDS011;18686;53.084;8.872;2023-06-14T13:19:02;3.72;;;1.70;;
32186;SDS011;18686;53.084;8.872;2023-06-14T13:21:30;6.32;;;2.03;;
32186;SDS011;18686;53.084;8.872;2023-06-14T13:23:58;3.97;;;2.00;;
32186;SDS011;18686;53.084;8.872;2023-06-14T13:26:27;3.08;;;1.70;;
32186;SDS011;18686;53.084;8.872;2023-06-14T13:28:55;3.90;;;1.90;;
32186;SDS011;18686;53.084;8.872;2023-06-14T13:31:25;6.78;;;1.70;;
32186;SDS011;18686;53.084;8.872;2023-06-14T13:33:53;3.85;;;1.80;;
32186;SDS011;18686;53.084;8.872;2023-06-14T13:36:21;4.43;;;1.80;;
32186;SDS011;18686;53.084;8.872;2023-06-14T13:38:49;5.15;;;1.70;;
32186;SDS011;18686;53.084;8.872;2023-06-14T13:41:19;5.60;;;1.67;;
32186;SDS011;18686;53.084;8.872;2023-06-14T13:43:48;4.70;;;1.50;;
32186;SDS011;18686;53.084;8.872;2023-06-14T13:46:17;3.95;;;1.60;;
32186;SDS011;18686;53.084;8.872;2023-06-14T13:48:46;3.03;;;1.63;;
32186;SDS011;18686;53.084;8.872;2023-06-14T13:51:14;4.10;;;1.50;;
32186;SDS011;18686;53.084;8.872;2023-06-14T13:53:45;2.70;;;1.70;;
32186;SDS011;18686;53.084;8.872;2023-06-14T13:56:14;7.97;;;1.85;;
32186;SDS011;18686;53.084;8.872;2023-06-14T13:58:42;3.78;;;1.90;;
32186;SDS011;18686;53.084;8.872;2023-06-14T14:01:10;3.08;;;1.50;;
32186;SDS011;18686;53.084;8.872;2023-06-14T14:03:39;5.65;;;1.88;;
32186;SDS011;18686;53.084;8.872;2023-06-14T14:06:08;3.38;;;1.80;;
32186;SDS011;18686;53.084;8.872;2023-06-14T14:08:37;2.72;;;2.00;;
32186;SDS011;18686;53.084;8.872;2023-06-14T14:11:05;3.63;;;2.58;;
32186;SDS011;18686;53.084;8.872;2023-06-14T14:13:35;5.30;;;3.70;;
32186;SDS011;18686;53.084;8.872;2023-06-14T14:16:05;3.55;;;2.20;;
32186;SDS011;18686;53.084;8.872;2023-06-14T14:18:33;8.80;;;2.45;;
32186;SDS011;18686;53.084;8.872;2023-06-14T14:21:02;5.47;;;1.63;;
32186;SDS011;18686;53.084;8.872;2023-06-14T14:23:32;4.50;;;1.42;;
32186;SDS011;18686;53.084;8.872;2023-06-14T14:26:01;5.93;;;1.38;;
32186;SDS011;18686;53.084;8.872;2023-06-14T14:28:30;3.53;;;1.83;;
32186;SDS011;18686;53.084;8.872;2023-06-14T14:31:00;6.78;;;2.10;;
32186;SDS011;18686;53.084;8.872;2023-06-14T14:33:29;3.40;;;1.92;;
32186;SDS011;18686;53.084;8.872;2023-06-14T14:35:57;5.50;;;1.90;;
32186;SDS011;18686;53.084;8.872;2023-06-14T14:38:30;5.40;;;2.30;;
32186;SDS011;18686;53.084;8.872;2023-06-14T14:41:00;4.82;;;1.98;;
32186;SDS011;18686;53.084;8.872;2023-06-14T14:43:28;5.25;;;2.20;;
32186;SDS011;18686;53.084;8.872;2023-06-14T14:45:58;5.28;;;2.08;;
32186;SDS011;18686;53.084;8.872;2023-06-14T14:48:26;3.25;;;1.98;;
32186;SDS011;18686;53.084;8.872;2023-06-14T14:50:54;4.28;;;2.17;;
32186;SDS011;18686;53.084;8.872;2023-06-14T14:53:23;6.75;;;2.10;;
32186;SDS011;18686;53.084;8.872;2023-06-14T14:55:51;6.93;;;2.17;;
32186;SDS011;18686;53.084;8.872;2023-06-14T14:58:20;5.38;;;2.40;;
32186;SDS011;18686;53.084;8.872;2023-06-14T15:00:49;6.07;;;3.00;;
32186;SDS011;18686;53.084;8.872;2023-06-14T15:03:17;3.00;;;2.20;;
32186;SDS011;18686;53.084;8.872;2023-06-14T15:05:46;9.65;;;2.17;;
32186;SDS011;18686;53.084;8.872;2023-06-14T15:08:14;4.35;;;2.33;;
32186;SDS011;18686;53.084;8.872;2023-06-14T15:10:43;2.28;;;1.90;;
32186;SDS011;18686;53.084;8.872;2023-06-14T15:13:11;4.43;;;2.30;;
32186;SDS011;18686;53.084;8.872;2023-06-14T15:15:41;3.22;;;2.53;;
32186;SDS011;18686;53.084;8.872;2023-06-14T15:18:09;5.90;;;2.40;;
32186;SDS011;18686;53.084;8.872;2023-06-14T15:20:37;5.72;;;2.10;;
32186;SDS011;18686;53.084;8.872;2023-06-14T15:23:07;7.15;;;2.30;;
32186;SDS011;18686;53.084;8.872;2023-06-14T15:25:35;7.30;;;2.53;;